Time;durP1;ratioP1;P1;durP2;ratioP2;P2;SDS_P1;SDS_P2;PMS_P1;PMS_P2;Temp;Humidity;BMP_temperature;BMP_pressure;BME280_temperature;BME280_humidity;BME280_pressure;Samples;Min_cycle;Max_cycle;Signal;HPM_P1;HPM_P2
2022/02/24 00:01:08;;;;;;;0.32;0.32;;;;;;;7.82;82.09;100139.59;6183500;23;20009;-69
2022/02/24 00:03:34;;;;;;;0.22;0.22;;;;;;;7.82;81.67;100134.16;6136694;23;20005;-71
2022/02/24 00:06:00;;;;;;;1.13;1.13;;;;;;;7.77;80.59;100119.66;6161746;23;20080;-70
2022/02/24 00:08:25;;;;;;;7.97;1.52;;;;;;;7.78;80.80;100114.00;6188098;23;20012;-71
2022/02/24 00:10:51;;;;;;;0.00;0.00;;;;;;;7.86;80.80;100113.53;6189198;23;20012;-70
2022/02/24 00:13:17;;;;;;;0.00;0.00;;;;;;;7.85;79.99;100117.31;6161556;23;20079;-70
2022/02/24 00:15:43;;;;;;;0.00;0.00;;;;;;;7.88;80.33;100109.72;6137439;23;20479;-70
2022/02/24 00:18:08;;;;;;;0.00;0.00;;;;;;;7.85;80.09;100095.53;6159390;23;20100;-69
2022/02/24 00:20:34;;;;;;;0.00;0.00;;;;;;;7.85;79.84;100090.09;6135113;23;20037;-69
2022/02/24 00:22:59;;;;;;;0.38;0.20;;;;;;;7.89;79.79;100105.94;6160603;23;20021;-69
2022/02/24 00:25:25;;;;;;;0.00;0.00;;;;;;;7.88;80.03;100099.66;6186271;23;20005;-68
2022/02/24 00:27:51;;;;;;;0.20;0.20;;;;;;;7.86;80.00;100102.63;6186761;23;20021;-69
2022/02/24 00:30:16;;;;;;;0.00;0.00;;;;;;;7.91;80.50;100092.88;6187855;23;20039;-69
2022/02/24 00:32:42;;;;;;;0.00;0.00;;;;;;;7.90;80.13;100075.72;6159811;23;20052;-69
2022/02/24 00:35:08;;;;;;;0.75;0.63;;;;;;;7.93;80.51;100074.38;6186889;23;20005;-69
2022/02/24 00:37:33;;;;;;;1.38;1.27;;;;;;;7.95;79.64;100067.59;6159608;23;20503;-69
2022/02/24 00:39:59;;;;;;;0.00;0.00;;;;;;;7.98;80.00;100071.72;6159564;23;20029;-69
2022/02/24 00:42:24;;;;;;;0.00;0.00;;;;;;;8.01;79.80;100057.59;6185765;23;20059;-68
2022/02/24 00:44:50;;;;;;;0.00;0.00;;;;;;;8.00;79.78;100059.50;6135337;23;20374;-69
2022/02/24 00:47:16;;;;;;;0.90;0.32;;;;;;;8.01;79.83;100050.22;6134946;23;20016;-69
2022/02/24 00:49:41;;;;;;;0.00;0.00;;;;;;;8.02;79.29;100051.06;6186825;23;20055;-70
2022/02/24 00:52:07;;;;;;;2.72;0.20;;;;;;;8.05;79.70;100053.28;6186416;23;20001;-70
2022/02/24 00:54:33;;;;;;;0.00;0.00;;;;;;;8.03;79.75;100030.91;6186407;23;20357;-69
2022/02/24 00:56:59;;;;;;;0.00;0.00;;;;;;;7.95;79.84;100034.94;6185296;23;20009;-69
2022/02/24 00:59:25;;;;;;;0.57;0.57;;;;;;;7.85;80.21;100034.84;6185706;23;20467;-71
2022/02/24 01:01:54;;;;;;;0.00;0.00;;;;;;;7.79;80.46;100020.34;6160291;23;20446;-71
2022/02/24 01:04:31;;;;;;;0.00;0.00;;;;;;;7.86;80.76;100026.41;6185997;23;20055;-71
2022/02/24 01:06:56;;;;;;;0.00;0.00;;;;;;;7.97;80.36;100029.22;6186481;23;20001;-70
2022/02/24 01:09:21;;;;;;;0.00;0.00;;;;;;;7.97;80.95;100021.06;6185338;23;20035;-69
2022/02/24 01:11:47;;;;;;;0.03;0.03;;;;;;;8.02;80.85;100016.47;6160493;23;20084;-69
2022/02/24 01:14:13;;;;;;;0.00;0.00;;;;;;;8.05;80.76;100026.03;6185762;23;20005;-68
2022/02/24 01:16:40;;;;;;;0.00;0.00;;;;;;;8.06;80.79;100003.19;6154969;23;20020;-69
2022/02/24 01:19:06;;;;;;;0.00;0.00;;;;;;;8.07;81.42;100002.06;6158845;23;20016;-69
2022/02/24 01:21:34;;;;;;;0.00;0.00;;;;;;;8.08;81.04;100006.47;6180829;23;20012;-70
2022/02/24 01:24:00;;;;;;;0.00;0.00;;;;;;;8.08;81.17;100001.00;6183750;23;20011;-68
2022/02/24 01:26:25;;;;;;;0.00;0.00;;;;;;;8.06;81.26;99984.13;6184689;23;20001;-70
2022/02/24 01:28:51;;;;;;;1.50;1.40;;;;;;;8.05;81.96;99985.19;6182812;23;20079;-71
2022/02/24 01:31:16;;;;;;;0.00;0.00;;;;;;;8.03;82.52;99993.63;6185131;23;20005;-70
2022/02/24 01:33:42;;;;;;;0.00;0.00;;;;;;;7.98;82.92;99985.41;6155920;23;20044;-68
2022/02/24 01:36:07;;;;;;;0.00;0.00;;;;;;;7.94;84.09;99972.56;6183289;23;20021;-68
2022/02/24 01:38:33;;;;;;;0.60;0.32;;;;;;;7.86;84.09;99943.94;6182742;23;20009;-69
2022/02/24 01:40:58;;;;;;;7.35;1.58;;;;;;;7.81;84.60;99942.00;6157599;23;20009;-69
2022/02/24 01:43:24;;;;;;;0.00;0.00;;;;;;;7.77;85.30;99957.19;6183955;23;20008;-68
2022/02/24 01:45:49;;;;;;;0.03;0.00;;;;;;;7.73;85.72;99928.84;6154934;23;20440;-70
2022/02/24 01:48:15;;;;;;;0.00;0.00;;;;;;;7.75;86.00;99926.66;6182761;23;20079;-68
2022/02/24 01:50:40;;;;;;;0.00;0.00;;;;;;;7.76;85.96;99922.88;6182317;23;20016;-69
2022/02/24 01:53:06;;;;;;;0.00;0.00;;;;;;;7.73;85.77;99923.41;6157468;23;20487;-70
2022/02/24 01:55:32;;;;;;;0.00;0.00;;;;;;;7.70;86.96;99929.38;6154389;23;20094;-68
2022/02/24 01:57:57;;;;;;;0.00;0.00;;;;;;;7.75;86.70;99912.25;6155799;23;20475;-71
2022/02/24 02:00:24;;;;;;;0.00;0.00;;;;;;;7.77;87.00;99908.19;6183647;23;20084;-68
2022/02/24 02:02:49;;;;;;;0.00;0.00;;;;;;;7.80;86.69;99902.22;6153040;23;20100;-66
2022/02/24 02:05:15;;;;;;;0.00;0.00;;;;;;;7.85;86.45;99894.09;6184306;23;20044;-70
2022/02/24 02:07:41;;;;;;;0.00;0.00;;;;;;;7.88;86.84;99892.75;6180734;23;20423;-70
2022/02/24 02:10:07;;;;;;;0.00;0.00;;;;;;;7.89;86.46;99890.88;6180880;23;20017;-69
2022/02/24 02:12:48;;;;;;;0.00;0.00;;;;;;;7.91;86.23;99880.53;6155114;23;20009;-70
2022/02/24 02:15:13;;;;;;;0.00;0.00;;;;;;;7.93;86.30;99872.91;6154358;23;20012;-70
2022/02/24 02:17:39;;;;;;;0.70;0.70;;;;;;;7.95;86.02;99870.75;6152238;23;20021;-68
2022/02/24 02:20:05;;;;;;;0.00;0.00;;;;;;;7.98;86.70;99876.47;6154887;23;20029;-69
2022/02/24 02:22:30;;;;;;;0.00;0.00;;;;;;;8.00;86.34;99859.88;6155490;23;20113;-68
2022/02/24 02:25:00;;;;;;;0.10;0.10;;;;;;;7.97;86.35;99852.25;6182351;23;20004;-70
2022/02/24 02:27:25;;;;;;;0.00;0.00;;;;;;;7.98;86.38;99843.00;6181258;23;20005;-69
2022/02/24 02:29:53;;;;;;;2.10;1.08;;;;;;;7.99;86.45;99844.66;6181952;23;20288;-68
2022/02/24 02:32:18;;;;;;;0.00;0.00;;;;;;;8.01;86.38;99842.47;6180144;23;20084;-68
2022/02/24 02:34:44;;;;;;;0.00;0.00;;;;;;;8.01;86.57;99837.84;6181604;23;20028;-69
2022/02/24 02:37:10;;;;;;;0.20;0.20;;;;;;;7.97;86.49;99842.19;6153889;23;20422;-69
2022/02/24 02:39:35;;;;;;;1.45;0.75;;;;;;;8.00;86.97;99830.78;6181545;23;20009;-68
2022/02/24 02:42:00;;;;;;;0.45;0.45;;;;;;;7.99;87.10;99839.19;6181987;23;20019;-70
2022/02/24 02:44:26;;;;;;;0.47;0.47;;;;;;;8.03;86.71;99823.94;6177685;23;20016;-69
2022/02/24 02:46:52;;;;;;;25.50;2.63;;;;;;;7.98;86.87;99826.66;6181188;23;20470;-70
2022/02/24 02:49:18;;;;;;;0.00;0.00;;;;;;;8.01;86.89;99812.53;6182422;23;20013;-69
2022/02/24 02:51:43;;;;;;;0.00;0.00;;;;;;;8.06;86.79;99818.00;6179722;23;20068;-69
2022/02/24 02:54:09;;;;;;;0.00;0.00;;;;;;;8.14;86.37;99809.31;6152269;23;20383;-69
2022/02/24 02:56:35;;;;;;;4.07;1.08;;;;;;;8.12;85.98;99806.06;6154123;23;20028;-71
2022/02/24 02:59:00;;;;;;;0.00;0.00;;;;;;;8.13;86.24;99796.81;6130410;23;20076;-70
2022/02/24 03:01:26;;;;;;;0.00;0.00;;;;;;;8.15;86.28;99800.06;6177010;23;20059;-70
2022/02/24 03:03:52;;;;;;;0.00;0.00;;;;;;;8.18;86.33;99798.72;6156251;23;20491;-70
2022/02/24 03:06:17;;;;;;;0.28;0.28;;;;;;;8.21;86.69;99793.56;6183793;23;20013;-70
2022/02/24 03:08:44;;;;;;;0.00;0.00;;;;;;;8.16;86.20;99774.47;6181947;23;20071;-70
2022/02/24 03:11:09;;;;;;;0.00;0.00;;;;;;;8.15;86.50;99756.50;6159467;23;20009;-70
2022/02/24 03:13:35;;;;;;;0.00;0.00;;;;;;;8.16;86.49;99785.38;6182278;23;20030;-70
2022/02/24 03:16:02;;;;;;;0.00;0.00;;;;;;;8.12;86.68;99761.63;6184499;23;20005;-69
2022/02/24 03:18:27;;;;;;;0.00;0.00;;;;;;;8.12;86.54;99759.75;6158164;23;20004;-70
2022/02/24 03:20:52;;;;;;;0.00;0.00;;;;;;;8.07;86.45;99748.81;6185893;23;20047;-69
2022/02/24 03:23:18;;;;;;;0.00;0.00;;;;;;;8.13;86.32;99753.22;6158032;23;20005;-69
2022/02/24 03:25:43;;;;;;;0.00;0.00;;;;;;;8.09;85.80;99751.28;6158799;23;20499;-70
2022/02/24 03:28:11;;;;;;;0.00;0.00;;;;;;;8.17;86.78;99748.06;6156858;23;20021;-71
2022/02/24 03:30:37;;;;;;;0.00;0.00;;;;;;;8.21;86.21;99733.63;6159431;23;20011;-70
2022/02/24 03:33:04;;;;;;;0.00;0.00;;;;;;;8.20;85.89;99721.09;6157673;23;20573;-70
2022/02/24 03:35:30;;;;;;;0.00;0.00;;;;;;;8.30;85.78;99727.69;6161362;23;20079;-70
2022/02/24 03:37:58;;;;;;;0.75;0.75;;;;;;;8.36;85.74;99712.97;6162393;23;20024;-70
2022/02/24 03:40:24;;;;;;;0.00;0.00;;;;;;;8.37;85.14;99715.44;6185431;23;20009;-70
2022/02/24 03:42:50;;;;;;;0.00;0.00;;;;;;;8.39;85.00;99709.72;6180241;23;20475;-70
2022/02/24 03:45:16;;;;;;;0.00;0.00;;;;;;;8.42;85.16;99700.19;6157270;23;20005;-69
2022/02/24 03:47:42;;;;;;;0.63;0.63;;;;;;;8.41;84.64;99693.94;6194797;23;20076;-69
2022/02/24 03:50:08;;;;;;;0.00;0.00;;;;;;;8.38;84.63;99689.00;6163303;23;20008;-70
2022/02/24 03:52:34;;;;;;;2.53;2.30;;;;;;;8.32;84.99;99680.03;6159876;23;20015;-69
2022/02/24 03:54:59;;;;;;;0.00;0.00;;;;;;;8.35;84.90;99678.63;6177780;23;19993;-70
2022/02/24 03:57:25;;;;;;;2.45;0.35;;;;;;;8.34;85.08;99661.47;6205319;23;20017;-68
2022/02/24 03:59:50;;;;;;;0.00;0.00;;;;;;;8.28;85.58;99665.28;6181352;23;20004;-70
2022/02/24 04:02:16;;;;;;;0.00;0.00;;;;;;;8.27;85.43;99681.91;6163544;23;20013;-69
2022/02/24 04:04:42;;;;;;;0.43;0.43;;;;;;;8.21;85.26;99665.53;6184882;23;20044;-69
2022/02/24 04:07:08;;;;;;;0.00;0.00;;;;;;;8.10;85.45;99639.34;6148051;23;20012;-68
2022/02/24 04:09:35;;;;;;;0.00;0.00;;;;;;;8.06;84.96;99637.44;6155490;23;20096;-69
2022/02/24 04:12:01;;;;;;;0.00;0.00;;;;;;;7.96;84.49;99639.06;6185027;23;20012;-69
2022/02/24 04:14:26;;;;;;;0.00;0.00;;;;;;;7.91;83.81;99625.44;6158300;23;20009;-68
2022/02/24 04:16:52;;;;;;;0.00;0.00;;;;;;;7.93;83.11;99617.00;6184479;23;20560;-69
2022/02/24 04:19:17;;;;;;;0.00;0.00;;;;;;;7.85;82.41;99621.88;6182359;23;20375;-69
2022/02/24 04:21:43;;;;;;;0.00;0.00;;;;;;;7.88;82.78;99619.72;6181966;23;20012;-69
2022/02/24 04:24:09;;;;;;;0.57;0.57;;;;;;;7.83;82.60;99632.22;6184773;23;20372;-69
2022/02/24 04:26:34;;;;;;;0.00;0.00;;;;;;;7.79;82.97;99609.34;6157895;23;20001;-71
2022/02/24 04:29:01;;;;;;;0.00;0.00;;;;;;;7.80;83.26;99597.38;6181605;23;20028;-69
2022/02/24 04:31:27;;;;;;;0.00;0.00;;;;;;;7.83;83.29;99621.34;6157161;23;20011;-69
2022/02/24 04:33:53;;;;;;;2.90;1.75;;;;;;;7.81;83.58;99603.63;6157252;23;20335;-70
2022/02/24 04:36:18;;;;;;;0.00;0.00;;;;;;;7.77;84.36;99607.97;6132191;23;20047;-69
2022/02/24 04:38:44;;;;;;;0.00;0.00;;;;;;;7.80;84.36;99586.47;6131601;23;20013;-67
2022/02/24 04:41:10;;;;;;;0.55;0.55;;;;;;;7.77;84.60;99597.91;6156517;23;20020;-69
2022/02/24 04:43:35;;;;;;;0.00;0.00;;;;;;;7.71;84.86;99599.00;6159414;23;20009;-69
2022/02/24 04:46:01;;;;;;;0.00;0.00;;;;;;;7.72;84.67;99588.91;6187286;23;20012;-68
2022/02/24 04:48:27;;;;;;;0.00;0.00;;;;;;;7.71;85.04;99589.97;6160017;23;20023;-68
2022/02/24 04:50:52;;;;;;;0.00;0.00;;;;;;;7.67;85.07;99573.38;6160370;23;20047;-70
2022/02/24 04:53:20;;;;;;;0.00;0.00;;;;;;;7.66;85.43;99574.47;6135708;23;20013;-70
2022/02/24 04:55:46;;;;;;;0.00;0.00;;;;;;;7.68;85.26;99561.41;6182843;23;20016;-70
2022/02/24 04:58:12;;;;;;;0.00;0.00;;;;;;;7.73;85.97;99582.38;6158961;23;20001;-66
2022/02/24 05:00:38;;;;;;;0.00;0.00;;;;;;;7.74;85.01;99570.41;6154489;23;20001;-68
2022/02/24 05:03:04;;;;;;;0.30;0.30;;;;;;;7.71;85.19;99571.78;6158680;23;20317;-68
2022/02/24 05:05:29;;;;;;;0.00;0.00;;;;;;;7.77;85.35;99570.69;6133148;23;20067;-69
2022/02/24 05:07:55;;;;;;;0.00;0.00;;;;;;;7.77;84.64;99565.25;6157396;23;20008;-68
2022/02/24 05:10:21;;;;;;;0.00;0.00;;;;;;;7.82;84.69;99578.84;6158276;23;20335;-68
2022/02/24 05:12:47;;;;;;;0.00;0.00;;;;;;;7.82;84.18;99591.66;6184925;23;20008;-69
2022/02/24 05:15:13;;;;;;;0.00;0.00;;;;;;;7.84;84.30;99593.03;6186923;23;20009;-70
2022/02/24 05:17:41;;;;;;;0.00;0.00;;;;;;;7.78;82.44;99596.84;6182989;23;20016;-70
2022/02/24 05:20:09;;;;;;;0.20;0.20;;;;;;;7.73;81.89;99604.97;6156340;23;20100;-70
2022/02/24 05:22:39;;;;;;;0.00;0.00;;;;;;;7.63;81.53;99580.44;6182450;23;20013;-69
2022/02/24 07:49:47;;;;;;;0.22;0.22;;;;;;;3.88;93.80;99623.97;6159091;23;20028;-77
2022/02/24 07:52:15;;;;;;;0.00;0.00;;;;;;;3.75;95.02;99632.38;6086458;23;20013;-77
2022/02/24 07:54:41;;;;;;;0.00;0.00;;;;;;;3.63;95.04;99622.41;6138023;23;20020;-75
2022/02/24 07:57:06;;;;;;;0.00;0.00;;;;;;;3.63;95.50;99617.00;6161792;23;19998;-77
2022/02/24 07:59:34;;;;;;;0.00;0.00;;;;;;;3.53;95.97;99616.81;6173301;23;20017;-72
2022/02/24 08:01:59;;;;;;;3.10;1.17;;;;;;;3.57;96.22;99607.16;6149494;23;20040;-75
2022/02/24 08:04:27;;;;;;;0.00;0.00;;;;;;;3.60;96.22;99590.47;6152546;23;20391;-74
2022/02/24 08:06:53;;;;;;;0.00;0.00;;;;;;;3.66;96.41;99589.53;6093435;23;20093;-76
2022/02/24 08:09:21;;;;;;;0.00;0.00;;;;;;;3.64;96.58;99621.38;6160120;23;20009;-75
2022/02/24 08:12:38;;;;;;;0.00;0.00;;;;;;;3.58;96.95;99614.22;6158803;23;20289;-78
2022/02/24 08:14:32;;;;;;;0.00;0.00;;;;;;;3.65;97.00;99641.09;6138808;23;20455;-77
2022/02/24 08:17:32;;;;;;;;;;;;;;;;;;;;;
2022/02/24 08:20:05;;;;;;;0.00;0.00;;;;;;;3.51;96.88;99635.16;6135739;23;20066;-77
2022/02/24 08:23:04;;;;;;;;;;;;;;;;;;;;;
2022/02/24 08:25:38;;;;;;;0.00;0.00;;;;;;;3.59;96.92;99667.25;6159381;23;20388;-77
2022/02/24 08:28:04;;;;;;;0.00;0.00;;;;;;;3.58;96.86;99679.13;6131948;23;20106;-76
2022/02/24 08:30:47;;;;;;;0.00;0.00;;;;;;;3.56;96.51;99702.84;6108444;23;20010;-75
2022/02/24 08:36:03;;;;;;;0.00;0.00;;;;;;;3.32;95.84;99727.19;6136247;23;20010;-78
2022/02/24 08:38:39;;;;;;;;;;;;;;;;;;;;;
2022/02/24 08:41:46;;;;;;;0.52;0.52;;;;;;;2.79;95.64;99695.69;6149569;23;20383;-79
2022/02/24 08:44:49;;;;;;;;;;;;;;;;;;;;;
2022/02/24 08:47:22;;;;;;;0.00;0.00;;;;;;;2.35;95.22;99697.81;6137319;23;20029;-75
2022/02/24 08:49:55;;;;;;;0.00;0.00;;;;;;;2.39;96.23;99709.78;6132554;23;20044;-77
2022/02/24 08:52:28;;;;;;;0.00;0.00;;;;;;;2.37;96.59;99688.44;6131980;23;20336;-77
2022/02/24 08:55:01;;;;;;;0.00;0.00;;;;;;;2.41;96.94;99678.81;6131682;23;20151;-78
2022/02/24 08:57:37;;;;;;;0.00;0.00;;;;;;;2.45;96.95;99649.50;6131634;23;20460;-77
2022/02/24 09:00:45;;;;;;;;;;;;;;;;;;;;;
2022/02/24 09:03:15;;;;;;;0.00;0.00;;;;;;;2.64;96.95;99671.81;6157629;23;20374;-78
2022/02/24 09:06:08;;;;;;;;;;;;;;;;;;;;;
2022/02/24 09:08:39;;;;;;;0.00;0.00;;;;;;;2.92;96.50;99656.81;6158877;23;20073;-78
2022/02/24 09:11:05;;;;;;;0.00;0.00;;;;;;;3.14;96.38;99674.09;6108404;23;20013;-79
2022/02/24 09:13:31;;;;;;;0.00;0.00;;;;;;;3.14;96.53;99657.09;6109055;23;20006;-77
2022/02/24 09:16:44;;;;;;;;;;;;;;;;;;;;;
2022/02/24 09:19:45;;;;;;;0.00;0.00;;;;;;;3.44;95.48;99673.13;6139066;23;20040;-77
2022/02/24 09:22:14;;;;;;;0.00;0.00;;;;;;;3.65;95.77;99692.47;6118905;23;20009;-76
2022/02/24 09:24:42;;;;;;;0.00;0.00;;;;;;;3.66;94.69;99680.63;6132915;23;20263;-77
2022/02/24 09:27:38;;;;;;;;;;;;;;;;;;;;;
2022/02/24 09:30:45;;;;;;;;;;;;;;;;;;;;;
2022/02/24 09:33:17;;;;;;;0.00;0.00;;;;;;;3.79;95.05;99668.72;6095674;23;20070;-78
2022/02/24 09:35:57;;;;;;;0.00;0.00;;;;;;;4.07;94.47;99696.84;6132893;23;20092;-77
2022/02/24 09:42:08;;;;;;;;;;;;;;;;;;;;;
2022/02/24 09:44:39;;;;;;;0.00;0.00;;;;;;;4.79;94.65;99700.84;6159682;23;20048;-76
2022/02/24 09:47:19;;;;;;;;;;;;;;;;;;;;;
2022/02/24 09:53:34;;;;;;;0.00;0.00;;;;;;;6.10;92.21;99718.47;6161580;23;20037;-77
2022/02/24 09:56:40;;;;;;;0.00;0.00;;;;;;;7.27;88.36;99736.13;6187512;23;20001;-77
2022/02/24 09:59:15;;;;;;;0.00;0.00;;;;;;;8.08;84.25;99749.66;6141650;23;20005;-76
2022/02/24 10:01:56;;;;;;;0.00;0.00;;;;;;;8.62;82.44;99748.50;6188136;23;20394;-76
2022/02/24 10:04:52;;;;;;;;;;;;;;;;;;;;;
2022/02/24 10:07:53;;;;;;;0.00;0.00;;;;;;;8.62;78.56;99792.09;6187429;23;20379;-76
2022/02/24 10:17:59;;;;;;;;;;;;;;;;;;;;;
2022/02/24 10:21:08;;;;;;;0.00;0.00;;;;;;;4.44;90.36;99774.97;6152075;23;20101;-77
2022/02/24 10:24:32;;;;;;;;;;;;;;;;;;;;;
2022/02/24 10:27:27;;;;;;;0.00;0.00;;;;;;;6.56;87.95;99758.06;6181565;23;20009;-78
2022/02/24 10:30:16;;;;;;;0.00;0.00;;;;;;;7.22;85.09;99773.34;6163434;23;20056;-78
2022/02/24 10:33:01;;;;;;;0.00;0.00;;;;;;;7.90;83.56;99767.25;6163297;23;20001;-77
2022/02/24 10:36:14;;;;;;;0.00;0.00;;;;;;;8.90;81.35;99777.16;6162418;23;20062;-76
2022/02/24 10:39:37;;;;;;;;;;;;;;;;;;;;;
2022/02/24 10:53:49;;;;;;;;;;;;;;;;;;;;;
2022/02/24 11:18:24;;;;;;;;;;;;;;;;;;;;;
2022/02/24 11:24:43;;;;;;;;;;;;;;;;;;;;;
2022/02/24 11:28:00;;;;;;;0.00;0.00;;;;;;;8.52;70.28;99891.81;5681173;24;20091;-71
2022/02/24 11:37:33;;;;;;;0.00;0.00;;;;;;;10.87;65.37;99888.53;5945256;23;20026;-72
2022/02/24 11:40:09;;;;;;;3.28;0.25;;;;;;;10.03;64.62;99907.34;6038152;23;20892;-71
2022/02/24 11:42:35;;;;;;;;;;;;;;;9.40;65.40;99909.28;6122374;23;20452;-72
2022/02/24 11:45:26;;;;;;;0.00;0.00;;;;;;;8.55;67.39;99920.44;6155647;23;19904;-70
2022/02/24 11:48:06;;;;;;;0.10;0.03;;;;;;;8.04;68.21;99896.41;6186472;23;20025;-74
2022/02/24 11:50:53;;;;;;;0.00;0.00;;;;;;;7.28;71.08;99922.69;6186024;23;20067;-72
2022/02/24 11:53:28;;;;;;;0.00;0.00;;;;;;;6.53;75.56;99935.16;6185368;23;20009;-72
2022/02/24 11:55:56;;;;;;;0.00;0.00;;;;;;;5.90;78.08;99959.72;6185948;23;20009;-69
2022/02/24 11:58:42;;;;;;;0.00;0.00;;;;;;;5.34;80.49;99967.69;6158976;23;20012;-71
2022/02/24 12:01:16;;;;;;;0.00;0.00;;;;;;;4.86;81.73;99954.31;6187455;23;20084;-70
2022/02/24 12:03:48;;;;;;;3.78;0.13;;;;;;;4.54;81.99;99951.16;6163524;23;20383;-70
2022/02/24 12:06:22;;;;;;;0.00;0.00;;;;;;;4.19;83.53;99949.31;6200355;23;20005;-69
2022/02/24 12:09:13;;;;;;;0.00;0.00;;;;;;;3.86;84.29;99966.94;6200367;23;20005;-70
2022/02/24 12:11:48;;;;;;;0.05;0.05;;;;;;;3.53;85.22;99962.84;6179307;23;20064;-71
2022/02/24 12:14:19;;;;;;;5.23;0.30;;;;;;;3.27;84.96;99959.50;6198465;23;20031;-70
2022/02/24 12:17:08;;;;;;;0.00;0.00;;;;;;;3.17;86.05;99980.84;6162602;23;20001;-70
2022/02/24 12:19:43;;;;;;;9.10;0.32;;;;;;;3.46;86.43;99990.00;6160070;23;20009;-72
2022/02/24 12:22:29;;;;;;;3.42;0.88;;;;;;;3.67;84.32;99980.53;6189470;23;20080;-71
2022/02/24 12:25:20;;;;;;;0.00;0.00;;;;;;;3.56;84.66;99938.06;6163233;23;20332;-71
2022/02/24 12:28:09;;;;;;;0.00;0.00;;;;;;;4.30;88.18;99945.78;6161769;23;19997;-73
2022/02/24 12:30:39;;;;;;;0.00;0.00;;;;;;;5.81;87.45;99925.91;6188123;23;20072;-71
2022/02/24 12:37:13;;;;;;;0.00;0.00;;;;;;;8.79;76.68;99945.38;6164676;23;20020;-73
2022/02/24 12:40:16;;;;;;;0.00;0.00;;;;;;;9.85;74.43;99945.06;6164048;23;20437;-72
2022/02/24 12:42:51;;;;;;;0.00;0.00;;;;;;;10.26;68.15;99945.00;6182392;23;20009;-74
2022/02/24 12:45:46;;;;;;;1.45;0.52;;;;;;;10.51;63.62;99943.34;6163174;23;20011;-73
2022/02/24 12:48:21;;;;;;;0.00;0.00;;;;;;;11.12;62.56;99938.78;6113379;23;20005;-72
2022/02/24 12:51:35;;;;;;;0.00;0.00;;;;;;;11.38;58.96;99964.09;6159407;23;20032;-72
2022/02/24 12:54:01;;;;;;;0.00;0.00;;;;;;;11.78;59.77;99944.91;6145851;23;20370;-73
2022/02/24 12:59:53;;;;;;;0.08;0.08;;;;;;;13.08;54.72;99987.25;6077466;23;20034;-71
2022/02/24 13:05:29;;;;;;;0.00;0.00;;;;;;;11.43;55.76;99961.28;6133631;23;20009;-73
2022/02/24 13:12:33;;;;;;;;;;;;;;;;;;;;;
2022/02/24 13:15:59;;;;;;;0.00;0.00;;;;;;;12.36;55.62;99994.31;6177186;23;20100;-72
2022/02/24 13:18:56;;;;;;;0.47;0.47;;;;;;;12.70;53.97;99987.97;6160737;23;20057;-72
2022/02/24 13:21:30;;;;;;;0.45;0.45;;;;;;;13.35;54.04;99994.91;6133319;23;20005;-72
2022/02/24 13:24:20;;;;;;;0.00;0.00;;;;;;;14.05;53.37;99982.34;6161013;23;20032;-71
2022/02/24 13:26:47;;;;;;;13.25;0.32;;;;;;;14.32;51.33;99998.13;6159840;23;20005;-72
2022/02/24 13:29:42;;;;;;;0.00;0.00;;;;;;;14.55;49.08;100009.25;6162390;23;20032;-73
2022/02/24 13:32:26;;;;;;;0.00;0.00;;;;;;;14.39;48.37;100024.41;6187456;23;20008;-71
2022/02/24 13:35:00;;;;;;;0.00;0.00;;;;;;;13.94;49.53;100013.84;6159339;23;20520;-71
2022/02/24 13:41:27;;;;;;;0.00;0.00;;;;;;;14.27;47.16;100033.13;6164756;23;20004;-70
2022/02/24 13:44:41;;;;;;;0.00;0.00;;;;;;;14.22;45.11;100005.69;6152148;23;20308;-71
2022/02/24 13:47:19;;;;;;;0.00;0.00;;;;;;;14.39;43.26;100025.22;6145857;23;20860;-68
2022/02/24 13:50:17;;;;;;;0.00;0.00;;;;;;;14.26;43.15;100028.75;6158086;23;20021;-70
2022/02/24 13:52:43;;;;;;;0.00;0.00;;;;;;;14.21;42.94;100020.59;6164315;23;20005;-71
2022/02/24 13:55:49;;;;;;;0.00;0.00;;;;;;;14.55;43.66;100027.72;6157695;23;20016;-72
2022/02/24 13:58:25;;;;;;;0.00;0.00;;;;;;;14.17;39.58;100038.81;6158895;23;20006;-71
2022/02/24 14:01:23;;;;;;;0.00;0.00;;;;;;;14.35;40.58;100029.69;6183392;23;20056;-68
2022/02/24 14:07:31;;;;;;;0.00;0.00;;;;;;;15.00;32.19;100094.09;6164911;23;20016;-72
2022/02/24 14:10:06;;;;;;;0.75;0.75;;;;;;;14.57;31.36;100063.97;6161222;23;20001;-72
2022/02/24 14:12:44;;;;;;;;;;;;;;;14.31;33.08;100067.19;6161024;23;20001;-72
2022/02/24 14:15:12;;;;;;;0.00;0.00;;;;;;;14.08;33.11;100080.72;6164238;23;19912;-72
2022/02/24 14:21:41;;;;;;;;;;;;;;;;;;;;;
2022/02/24 14:24:38;;;;;;;;;;;;;;;;;;;;;
2022/02/24 14:27:00;;;;;;;0.00;0.00;;;;;;;13.85;34.72;100098.09;6200903;23;20054;-68
2022/02/24 14:29:26;;;;;;;0.10;0.10;;;;;;;13.43;34.96;100098.63;6212398;23;20000;-68
2022/02/24 14:31:51;;;;;;;0.00;0.00;;;;;;;13.33;36.07;100109.69;6186350;23;20420;-68
2022/02/24 14:34:17;;;;;;;1.23;0.10;;;;;;;13.10;35.88;100117.63;6161175;23;20043;-68
2022/02/24 14:36:42;;;;;;;0.00;0.00;;;;;;;12.08;38.01;100102.03;6186122;23;20102;-69
2022/02/24 14:39:08;;;;;;;0.00;0.00;;;;;;;10.87;41.03;100128.44;6186643;23;20467;-70
2022/02/24 14:41:33;;;;;;;0.22;0.22;;;;;;;9.85;42.56;100152.59;6186506;23;20040;-68
2022/02/24 14:43:59;;;;;;;0.00;0.00;;;;;;;9.37;45.67;100119.91;6212477;23;20454;-68
2022/02/24 14:46:24;;;;;;;0.00;0.00;;;;;;;9.93;45.79;100146.63;6161168;23;20005;-69
2022/02/24 14:48:50;;;;;;;0.00;0.00;;;;;;;10.66;44.08;100131.19;6211275;23;20004;-69
2022/02/24 14:51:15;;;;;;;1.33;0.43;;;;;;;11.27;42.96;100143.97;6184676;23;20035;-70
2022/02/24 14:53:41;;;;;;;0.00;0.00;;;;;;;11.74;41.78;100130.09;6187605;23;20077;-70
2022/02/24 14:56:06;;;;;;;0.00;0.00;;;;;;;12.22;42.15;100135.91;6161778;23;20032;-70
2022/02/24 14:58:32;;;;;;;0.10;0.10;;;;;;;12.65;40.94;100135.34;6137393;23;20068;-69
2022/02/24 15:00:57;;;;;;;0.00;0.00;;;;;;;13.31;40.60;100133.88;6214451;23;20005;-68
2022/02/24 15:03:23;;;;;;;0.00;0.00;;;;;;;13.81;39.43;100132.78;6213399;23;20316;-69
2022/02/24 15:05:49;;;;;;;0.00;0.00;;;;;;;14.36;39.28;100141.34;6215058;23;20031;-69
2022/02/24 15:08:14;;;;;;;0.00;0.00;;;;;;;14.65;35.91;100148.63;6215491;23;20004;-70
2022/02/24 15:10:41;;;;;;;0.22;0.22;;;;;;;14.26;34.79;100152.50;6189486;23;20104;-69
2022/02/24 15:13:07;;;;;;;0.68;0.68;;;;;;;13.98;36.62;100143.28;6212642;23;20293;-67
2022/02/24 15:15:33;;;;;;;9.02;0.65;;;;;;;13.66;36.49;100140.09;6213103;23;20000;-70
2022/02/24 15:17:58;;;;;;;1.55;0.70;;;;;;;13.77;37.38;100149.84;6212765;23;20439;-68
2022/02/24 15:20:25;;;;;;;0.25;0.25;;;;;;;13.74;37.33;100153.19;6214971;23;20094;-70
2022/02/24 15:22:51;;;;;;;0.75;0.75;;;;;;;13.63;38.03;100159.09;6214712;23;20036;-71
2022/02/24 15:25:18;;;;;;;0.00;0.00;;;;;;;13.54;36.94;100164.44;6214838;23;20001;-68
2022/02/24 15:27:44;;;;;;;0.10;0.10;;;;;;;13.47;37.13;100159.28;6186112;23;20084;-69
2022/02/24 15:30:11;;;;;;;0.22;0.22;;;;;;;13.09;36.83;100170.88;6215128;23;20032;-69
2022/02/24 15:32:37;;;;;;;0.00;0.00;;;;;;;12.83;35.97;100175.78;6186882;23;20115;-69
2022/02/24 15:35:04;;;;;;;0.00;0.00;;;;;;;12.36;37.03;100179.97;6187040;23;20335;-69
2022/02/24 15:37:30;;;;;;;0.00;0.00;;;;;;;11.58;38.43;100197.81;6216007;23;20380;-70
2022/02/24 15:39:55;;;;;;;0.00;0.00;;;;;;;11.27;39.11;100193.25;6186931;23;20032;-70
2022/02/24 15:42:21;;;;;;;0.00;0.00;;;;;;;11.29;40.16;100195.72;6213560;23;20004;-69
2022/02/24 15:44:46;;;;;;;0.00;0.00;;;;;;;11.47;39.59;100186.09;6186752;23;20004;-69
2022/02/24 15:47:15;;;;;;;0.00;0.00;;;;;;;11.92;40.34;100203.47;6212178;23;19996;-70
2022/02/24 15:49:40;;;;;;;0.88;0.70;;;;;;;12.21;38.48;100206.38;6163619;23;20403;-69
2022/02/24 15:52:06;;;;;;;0.00;0.00;;;;;;;12.45;38.24;100207.63;6186690;23;20047;-69
2022/02/24 15:54:31;;;;;;;0.00;0.00;;;;;;;12.18;37.29;100212.41;6164008;23;20498;-69
2022/02/24 15:56:57;;;;;;;4.47;1.10;;;;;;;11.91;38.68;100234.69;6211980;23;20012;-68
2022/02/24 15:59:22;;;;;;;0.00;0.00;;;;;;;11.83;39.00;100221.59;6214050;23;20008;-71
2022/02/24 16:01:48;;;;;;;0.00;0.00;;;;;;;12.14;38.81;100226.97;6162066;23;20416;-69
2022/02/24 16:04:14;;;;;;;0.00;0.00;;;;;;;12.22;36.48;100229.94;6211974;23;20008;-69
2022/02/24 16:06:39;;;;;;;5.25;0.93;;;;;;;11.47;37.08;100251.81;6189155;23;20001;-69
2022/02/24 16:09:05;;;;;;;0.10;0.10;;;;;;;10.45;39.25;100247.91;6192206;23;20031;-69
2022/02/24 16:11:30;;;;;;;0.10;0.10;;;;;;;9.59;41.04;100248.06;6211377;23;20009;-70
2022/02/24 16:13:56;;;;;;;0.10;0.10;;;;;;;8.88;42.95;100235.53;6214142;23;20009;-71
2022/02/24 16:16:24;;;;;;;4.07;0.30;;;;;;;8.24;43.98;100249.84;6213560;23;20031;-70
2022/02/24 16:18:51;;;;;;;1.55;1.45;;;;;;;7.64;45.93;100251.53;6188775;23;20008;-69
2022/02/24 16:21:18;;;;;;;3.92;0.73;;;;;;;7.16;45.81;100272.84;6164993;23;20005;-70